Time;durP1;ratioP1;P1;durP2;ratioP2;P2;SDS_P1;SDS_P2;PMS_P1;PMS_P2;Temp;Humidity;BMP_temperature;BMP_pressure;BME280_temperature;BME280_humidity;BME280_pressure;Samples;Min_cycle;Max_cycle;Signal;HPM_P1;HPM_P2
2021/12/01 00:04:06;;;;;;;12.30;5.20;;;22.80;54.50;;;;;;220100;1306;25281;-52
2021/12/01 00:09:10;;;;;;;12.20;4.90;;;23.00;54.00;;;;;;220305;1306;22636;-55
2021/12/01 00:14:14;;;;;;;18.60;5.40;;;23.20;53.50;;;;;;220212;1310;22574;-55
2021/12/01 00:19:18;;;;;;;12.90;4.80;;;23.20;53.80;;;;;;220306;1309;22608;-53
2021/12/01 00:24:22;;;;;;;10.00;5.10;;;23.20;53.40;;;;;;220302;1306;22754;-56
2021/12/01 00:29:26;;;;;;;11.80;4.80;;;23.20;53.40;;;;;;220248;1306;22667;-53
2021/12/01 00:34:32;;;;;;;11.40;4.60;;;23.20;53.20;;;;;;220335;1306;25157;-55
2021/12/01 00:39:36;;;;;;;10.70;4.70;;;23.10;53.20;;;;;;220203;1301;22579;-56
2021/12/01 00:44:46;;;;;;;13.30;4.70;;;23.20;52.80;;;;;;220291;1309;22638;-55
2021/12/01 00:49:50;;;;;;;9.20;4.30;;;23.30;52.90;;;;;;220275;1310;22593;-55
2021/12/01 00:54:54;;;;;;;12.00;4.20;;;23.30;52.60;;;;;;220153;1309;22562;-55
2021/12/01 00:59:58;;;;;;;10.60;4.30;;;23.20;52.70;;;;;;220220;1310;22585;-52
2021/12/01 01:05:04;;;;;;;12.30;3.90;;;23.30;52.40;;;;;;220256;1306;22874;-55
2021/12/01 01:10:25;;;;;;;10.20;4.10;;;23.30;52.30;;;;;;220253;1306;22632;-55
2021/12/01 01:20:51;;;;;;;9.00;3.90;;;23.30;52.00;;;;;;220293;1306;22590;-53
2021/12/01 01:25:56;;;;;;;8.90;3.80;;;23.30;52.00;;;;;;220036;1308;25451;-52
2021/12/01 01:31:00;;;;;;;7.70;3.70;;;23.30;51.80;;;;;;220276;1306;22595;-55
2021/12/01 01:36:04;;;;;;;8.20;3.60;;;23.30;51.70;;;;;;220312;1306;22679;-53
2021/12/01 01:41:10;;;;;;;9.50;3.50;;;23.40;51.60;;;;;;220177;1309;22753;-55
2021/12/01 01:46:15;;;;;;;8.70;3.40;;;23.50;51.50;;;;;;220264;1309;22633;-53
2021/12/01 01:51:22;;;;;;;6.90;3.70;;;23.40;51.50;;;;;;220252;1310;22577;-55
2021/12/01 01:56:27;;;;;;;9.90;3.60;;;23.40;51.50;;;;;;220316;1306;24908;-56
2021/12/01 02:06:38;;;;;;;6.20;2.90;;;23.50;51.10;;;;;;220084;1311;22587;-52
2021/12/01 02:11:42;;;;;;;7.60;3.30;;;23.60;51.00;;;;;;220258;1306;22602;-56
2021/12/01 02:16:46;;;;;;;6.60;2.70;;;23.60;51.60;;;;;;220197;1311;22684;-53
2021/12/01 02:21:51;;;;;;;9.00;3.40;;;23.50;51.00;;;;;;220288;1306;24431;-54
2021/12/01 02:26:55;;;;;;;8.70;3.20;;;23.50;51.00;;;;;;220259;1306;22629;-55
2021/12/01 02:31:59;;;;;;;6.40;3.10;;;23.60;50.90;;;;;;220219;1305;25559;-55
2021/12/01 02:37:06;;;;;;;6.30;3.10;;;23.60;50.80;;;;;;220297;1306;22639;-54
2021/12/01 02:42:13;;;;;;;6.10;3.40;;;23.60;50.70;;;;;;220221;1309;22591;-55
2021/12/01 02:47:16;;;;;;;7.10;3.60;;;23.60;50.80;;;;;;220221;1309;22668;-55
2021/12/01 02:52:22;;;;;;;6.00;3.00;;;23.60;50.80;;;;;;220210;1309;22577;-55
2021/12/01 02:57:26;;;;;;;6.20;2.70;;;23.70;50.80;;;;;;220266;1309;22576;-54
2021/12/01 03:02:30;;;;;;;6.90;2.90;;;23.60;50.50;;;;;;220190;1310;22837;-55
2021/12/01 03:07:35;;;;;;;6.20;3.00;;;23.80;50.40;;;;;;220281;1309;22622;-55
2021/12/01 03:12:41;;;;;;;6.50;3.10;;;23.70;50.40;;;;;;220235;1309;22590;-55
2021/12/01 03:17:45;;;;;;;5.50;2.70;;;23.70;50.40;;;;;;220164;1306;22574;-54
2021/12/01 03:22:49;;;;;;;5.70;2.50;;;23.70;50.40;;;;;;220249;1309;22599;-54
2021/12/01 03:27:53;;;;;;;4.80;2.50;;;23.70;50.40;;;;;;220244;1306;22761;-53
2021/12/01 03:32:57;;;;;;;7.20;3.00;;;23.80;50.30;;;;;;220262;1306;22575;-54
2021/12/01 03:38:01;;;;;;;4.80;2.30;;;23.70;50.30;;;;;;220265;1310;22571;-55
2021/12/01 03:43:05;;;;;;;6.40;2.60;;;23.80;50.10;;;;;;220272;1306;22571;-55
2021/12/01 03:48:09;;;;;;;4.90;2.50;;;23.80;50.10;;;;;;220243;1309;22994;-55
2021/12/01 03:53:13;;;;;;;5.50;2.40;;;23.80;50.00;;;;;;220224;1309;22597;-53
2021/12/01 03:58:17;;;;;;;4.90;2.40;;;23.80;49.90;;;;;;220257;1306;22757;-55
2021/12/01 04:03:21;;;;;;;4.90;2.20;;;23.80;50.00;;;;;;220244;1309;22702;-55
2021/12/01 04:08:25;;;;;;;4.60;2.20;;;23.80;50.00;;;;;;220301;1306;22570;-55
2021/12/01 04:13:29;;;;;;;4.20;2.30;;;23.80;50.10;;;;;;220163;1306;22734;-54
2021/12/01 04:18:33;;;;;;;5.70;2.30;;;23.80;49.90;;;;;;220275;1309;22583;-56
2021/12/01 04:23:37;;;;;;;4.80;2.40;;;23.90;49.60;;;;;;220286;1306;22587;-54
2021/12/01 04:28:41;;;;;;;4.60;2.20;;;23.90;50.00;;;;;;220255;1306;22628;-55
2021/12/01 04:33:45;;;;;;;4.00;2.00;;;23.90;49.70;;;;;;220273;1306;22570;-56
2021/12/01 04:38:48;;;;;;;3.90;2.00;;;23.90;49.70;;;;;;220063;1310;22773;-55
2021/12/01 04:43:53;;;;;;;3.80;1.50;;;24.00;49.50;;;;;;220126;1309;24294;-56
2021/12/01 04:48:57;;;;;;;5.30;2.10;;;23.90;49.40;;;;;;220287;1306;22582;-56
2021/12/01 04:54:03;;;;;;;4.60;1.90;;;23.90;49.50;;;;;;220242;1311;23024;-56
2021/12/01 04:59:06;;;;;;;6.30;2.50;;;23.90;49.40;;;;;;220286;1306;22588;-56
2021/12/01 05:04:12;;;;;;;3.40;2.10;;;24.00;49.20;;;;;;220269;1306;22580;-55
2021/12/01 05:09:16;;;;;;;4.40;2.20;;;24.00;49.30;;;;;;220300;1306;22617;-54
2021/12/01 05:14:20;;;;;;;4.00;2.20;;;23.90;49.20;;;;;;220273;1306;22577;-54
2021/12/01 05:19:24;;;;;;;3.20;1.70;;;23.90;49.60;;;;;;220268;1306;22592;-56
2021/12/01 05:24:28;;;;;;;4.90;2.30;;;24.00;49.20;;;;;;220292;1306;22577;-55
2021/12/01 05:29:32;;;;;;;4.60;1.90;;;24.00;49.00;;;;;;220343;1306;22670;-56
2021/12/01 05:34:35;;;;;;;3.70;1.90;;;24.10;48.90;;;;;;220334;1309;22674;-52
2021/12/01 05:39:41;;;;;;;3.20;2.00;;;24.10;48.90;;;;;;220304;1309;22582;-55
2021/12/01 05:44:45;;;;;;;3.20;1.80;;;24.10;48.90;;;;;;220181;1314;22558;-55
2021/12/01 05:49:49;;;;;;;3.80;2.00;;;24.10;48.70;;;;;;220296;1309;22576;-56
2021/12/01 05:54:53;;;;;;;4.30;2.20;;;24.10;49.00;;;;;;220279;1312;22586;-55
2021/12/01 05:59:59;;;;;;;5.30;2.10;;;24.10;48.80;;;;;;220228;1309;25523;-56
2021/12/01 06:05:04;;;;;;;4.40;1.90;;;24.10;48.90;;;;;;220254;1307;22572;-53
2021/12/01 06:10:09;;;;;;;4.10;2.00;;;23.90;49.20;;;;;;220220;1308;22587;-55
2021/12/01 06:15:15;;;;;;;3.80;1.70;;;23.70;49.50;;;;;;220214;1309;22619;-55
2021/12/01 06:20:19;;;;;;;5.90;1.70;;;23.50;49.90;;;;;;220100;1309;22626;-55
2021/12/01 06:25:23;;;;;;;4.70;1.90;;;23.30;50.20;;;;;;220282;1309;22574;-54
2021/12/01 06:30:32;;;;;;;3.90;1.90;;;23.10;50.60;;;;;;220143;1309;22578;-55
2021/12/01 06:35:38;;;;;;;3.80;2.10;;;23.00;51.00;;;;;;220242;1309;22576;-54
2021/12/01 06:40:43;;;;;;;5.90;2.10;;;22.90;51.20;;;;;;219938;1308;22683;-56
2021/12/01 06:45:47;;;;;;;6.70;2.20;;;22.80;51.60;;;;;;220189;1315;22576;-53
2021/12/01 06:50:51;;;;;;;6.70;2.00;;;22.80;52.70;;;;;;220199;1314;22590;-54
2021/12/01 06:55:58;;;;;;;11.20;2.60;;;22.80;53.20;;;;;;220182;1309;22639;-55
2021/12/01 07:01:08;;;;;;;5.00;2.00;;;22.70;53.80;;;;;;220194;1312;22582;-55
2021/12/01 07:06:17;;;;;;;7.80;2.00;;;22.70;54.10;;;;;;220123;1309;22593;-56
2021/12/01 07:11:21;;;;;;;5.70;2.30;;;22.70;54.10;;;;;;220121;1309;22578;-57
2021/12/01 07:16:27;;;;;;;6.90;2.40;;;22.60;54.30;;;;;;220228;1309;25011;-56
2021/12/01 07:21:32;;;;;;;17.20;3.90;;;22.40;54.40;;;;;;219854;1309;619315;-55
2021/12/01 07:26:38;;;;;;;10.90;2.70;;;22.40;57.80;;;;;;220227;1312;22712;-55
2021/12/01 07:31:43;;;;;;;6.60;2.20;;;22.40;56.90;;;;;;220309;1307;22595;-56
2021/12/01 07:36:48;;;;;;;11.10;2.90;;;22.40;57.40;;;;;;220172;1309;22585;-58
2021/12/01 07:41:56;;;;;;;9.70;2.60;;;22.30;57.80;;;;;;220031;1310;22672;-53
2021/12/01 07:47:00;;;;;;;13.80;3.30;;;22.30;57.50;;;;;;220116;1309;22590;-55
2021/12/01 07:52:09;;;;;;;16.90;2.90;;;22.30;57.40;;;;;;219698;1312;22736;-56
2021/12/01 07:57:14;;;;;;;11.00;2.60;;;22.20;57.60;;;;;;219772;1315;22586;-55
2021/12/01 08:02:18;;;;;;;7.60;2.50;;;22.10;57.20;;;;;;219940;1310;22680;-54
2021/12/01 08:07:27;;;;;;;10.20;3.00;;;22.00;57.20;;;;;;220183;1307;22568;-56
2021/12/01 08:12:33;;;;;;;11.20;2.50;;;22.00;57.00;;;;;;220257;1306;26610;-57
2021/12/01 08:17:38;;;;;;;8.20;2.80;;;22.20;56.60;;;;;;220356;1307;22583;-52
2021/12/01 08:22:44;;;;;;;10.20;3.10;;;22.50;55.90;;;;;;220345;1312;22676;-55
2021/12/01 08:27:51;;;;;;;7.50;2.80;;;22.90;54.60;;;;;;220208;1311;22693;-54
2021/12/01 08:32:55;;;;;;;8.90;2.60;;;23.10;53.80;;;;;;220186;1306;22601;-53
2021/12/01 08:37:59;;;;;;;10.50;2.90;;;23.30;52.80;;;;;;220221;1311;22574;-54
2021/12/01 08:43:03;;;;;;;7.50;3.10;;;23.30;52.10;;;;;;220190;1307;24323;-53
2021/12/01 08:48:07;;;;;;;7.20;2.90;;;23.30;52.30;;;;;;220254;1312;24315;-55
2021/12/01 08:53:11;;;;;;;10.80;3.30;;;23.30;52.00;;;;;;220252;1306;22633;-56
2021/12/01 08:58:19;;;;;;;8.60;2.90;;;23.30;52.10;;;;;;220197;1312;22653;-55
2021/12/01 09:03:25;;;;;;;7.40;2.90;;;23.30;52.20;;;;;;220325;1306;22574;-56
2021/12/01 09:08:29;;;;;;;8.20;3.10;;;23.40;52.30;;;;;;219929;1306;24547;-54
2021/12/01 09:13:36;;;;;;;9.50;3.30;;;23.50;52.20;;;;;;220059;1306;22589;-55
2021/12/01 09:18:40;;;;;;;11.30;2.60;;;23.50;52.20;;;;;;220070;1307;22578;-55
2021/12/01 09:23:46;;;;;;;5.90;2.70;;;23.50;52.20;;;;;;220053;1315;22799;-56
2021/12/01 09:28:53;;;;;;;6.30;2.90;;;23.50;52.10;;;;;;220032;1315;22651;-55
2021/12/01 09:34:03;;;;;;;8.10;2.80;;;23.50;52.00;;;;;;220146;1310;24434;-55
2021/12/01 09:39:14;;;;;;;8.50;3.20;;;23.50;51.90;;;;;;220073;1312;22666;-55
2021/12/01 09:44:20;;;;;;;8.00;2.60;;;23.60;51.70;;;;;;220139;1312;24375;-57
2021/12/01 09:49:24;;;;;;;9.30;3.10;;;23.50;51.50;;;;;;220063;1315;22701;-55
2021/12/01 09:54:28;;;;;;;6.60;2.60;;;23.60;51.50;;;;;;220171;1306;22642;-54
2021/12/01 09:59:32;;;;;;;5.70;2.60;;;23.60;51.20;;;;;;220144;1312;23555;-55
2021/12/01 10:04:36;;;;;;;6.80;2.70;;;23.60;51.20;;;;;;220238;1312;22648;-55
2021/12/01 10:09:50;;;;;;;6.90;3.00;;;23.60;51.20;;;;;;220118;1312;22705;-56
2021/12/01 10:14:58;;;;;;;5.70;3.00;;;23.70;51.10;;;;;;220115;1307;22594;-55
2021/12/01 10:20:18;;;;;;;7.80;2.70;;;23.60;51.00;;;;;;219978;1307;22778;-53
2021/12/01 10:25:31;;;;;;;5.40;2.60;;;23.70;51.00;;;;;;220062;1312;22596;-55
2021/12/01 10:30:37;;;;;;;5.60;2.90;;;23.70;50.90;;;;;;219828;1312;22586;-55
2021/12/01 10:35:41;;;;;;;6.00;2.70;;;23.80;50.70;;;;;;220057;1309;22585;-55
2021/12/01 10:41:00;;;;;;;5.60;2.90;;;23.70;50.60;;;;;;220094;1307;22679;-56
2021/12/01 10:46:16;;;;;;;6.50;3.00;;;23.80;50.80;;;;;;220068;1306;22610;-54
2021/12/01 10:51:36;;;;;;;5.90;2.80;;;23.80;50.40;;;;;;219881;1313;22558;-56
2021/12/01 10:56:43;;;;;;;8.30;2.90;;;23.60;50.60;;;;;;219829;1314;22587;-55
2021/12/01 11:02:08;;;;;;;6.30;3.00;;;23.50;50.90;;;;;;219897;1310;22648;-52
2021/12/01 11:07:36;;;;;;;7.30;2.90;;;23.30;51.30;;;;;;219915;1306;22629;-57
2021/12/01 11:12:43;;;;;;;10.00;3.00;;;23.20;51.60;;;;;;219922;1306;22825;-53
2021/12/01 11:18:17;;;;;;;9.10;2.80;;;23.10;51.80;;;;;;219691;1311;24280;-55
2021/12/01 11:23:57;;;;;;;7.50;2.80;;;23.00;52.10;;;;;;220003;1310;23165;-54
2021/12/01 11:29:08;;;;;;;6.90;3.20;;;22.90;52.40;;;;;;220035;1309;22788;-54
2021/12/01 11:34:20;;;;;;;5.10;2.70;;;22.80;53.00;;;;;;219975;1309;22631;-54
2021/12/01 11:39:32;;;;;;;6.20;2.90;;;22.70;53.10;;;;;;219833;1306;24302;-54
2021/12/01 11:44:36;;;;;;;6.90;3.00;;;22.60;53.30;;;;;;220142;1311;24016;-55
2021/12/01 11:49:43;;;;;;;5.30;2.80;;;22.60;53.50;;;;;;219885;1309;22669;-55
2021/12/01 11:54:47;;;;;;;8.00;2.90;;;22.50;53.50;;;;;;219951;1311;22737;-56
2021/12/01 11:59:50;;;;;;;5.70;2.80;;;22.40;53.50;;;;;;220112;1309;22763;-53
2021/12/01 12:04:57;;;;;;;4.80;2.60;;;22.40;53.60;;;;;;220168;1311;22586;-55
2021/12/01 12:10:06;;;;;;;4.90;2.20;;;22.30;53.60;;;;;;220285;1306;22674;-55
2021/12/01 12:15:32;;;;;;;4.40;2.30;;;22.30;53.70;;;;;;220217;1311;26664;-54
2021/12/01 12:20:44;;;;;;;8.60;2.90;;;22.20;53.70;;;;;;220222;1306;22583;-51
2021/12/01 12:25:54;;;;;;;6.60;3.20;;;22.10;53.60;;;;;;220062;1309;23141;-55
2021/12/01 12:31:18;;;;;;;8.00;3.10;;;22.30;52.80;;;;;;220007;1306;22596;-52
2021/12/01 12:36:42;;;;;;;9.40;4.20;;;22.60;52.20;;;;;;220097;1306;22589;-55
2021/12/01 12:42:00;;;;;;;6.80;2.80;;;22.80;51.60;;;;;;220136;1312;22587;-54
2021/12/01 12:47:12;;;;;;;6.50;3.40;;;23.20;50.90;;;;;;220106;1306;22560;-53
2021/12/01 12:52:26;;;;;;;6.00;3.60;;;23.30;50.60;;;;;;220022;1311;22770;-51
2021/12/01 12:57:48;;;;;;;6.60;3.20;;;23.40;50.30;;;;;;220280;1311;22647;-57
2021/12/01 13:02:56;;;;;;;9.30;3.30;;;23.30;50.20;;;;;;220038;1306;25547;-53
2021/12/01 13:08:02;;;;;;;4.90;3.00;;;23.30;50.30;;;;;;220071;1306;22597;-53
2021/12/01 13:13:10;;;;;;;7.70;3.20;;;23.30;50.50;;;;;;219980;1306;22768;-55
2021/12/01 13:18:27;;;;;;;6.90;4.00;;;23.30;50.20;;;;;;220016;1309;22620;-54
2021/12/01 13:23:58;;;;;;;6.20;3.30;;;23.30;50.10;;;;;;219754;1308;23246;-56
2021/12/01 13:29:09;;;;;;;7.20;3.20;;;23.30;50.00;;;;;;219951;1306;22624;-56
2021/12/01 13:34:29;;;;;;;5.40;3.30;;;23.30;50.20;;;;;;220102;1306;25451;-53
2021/12/01 13:39:38;;;;;;;4.80;3.00;;;23.30;49.80;;;;;;220237;1307;25274;-54
2021/12/01 13:44:46;;;;;;;8.20;3.20;;;23.30;49.70;;;;;;220112;1306;22609;-56
2021/12/01 13:50:03;;;;;;;8.30;3.20;;;23.40;49.80;;;;;;220085;1306;22666;-56
2021/12/01 13:55:30;;;;;;;6.00;2.90;;;23.40;49.70;;;;;;219934;1306;22701;-56
2021/12/01 14:00:38;;;;;;;5.50;3.10;;;23.40;50.80;;;;;;219875;1307;22662;-54
2021/12/01 14:05:47;;;;;;;5.80;2.90;;;23.30;51.60;;;;;;219992;1306;22520;-55
2021/12/01 14:11:14;;;;;;;6.00;2.90;;;23.30;53.80;;;;;;219834;1306;22585;-52
2021/12/01 14:16:38;;;;;;;6.60;2.80;;;23.20;54.20;;;;;;220073;1306;22715;-55
2021/12/01 14:22:12;;;;;;;7.70;3.30;;;23.40;54.60;;;;;;220165;1306;25414;-52
2021/12/01 14:27:45;;;;;;;7.20;3.10;;;23.30;54.80;;;;;;220211;1306;22643;-53
2021/12/01 14:32:52;;;;;;;8.00;3.10;;;23.40;56.20;;;;;;220271;1307;22580;-56
2021/12/01 14:37:58;;;;;;;6.90;3.10;;;23.50;56.30;;;;;;220056;1306;22616;-54
2021/12/01 14:43:02;;;;;;;7.20;3.40;;;23.40;57.60;;;;;;219916;1310;22713;-54
2021/12/01 14:48:11;;;;;;;7.00;3.00;;;23.50;57.60;;;;;;220136;1311;23015;-55
2021/12/01 14:53:18;;;;;;;6.90;3.60;;;23.50;58.50;;;;;;220355;1306;24251;-52
2021/12/01 14:58:31;;;;;;;6.30;3.30;;;23.40;58.70;;;;;;220278;1311;22589;-56
2021/12/01 15:03:53;;;;;;;7.20;3.40;;;23.40;58.40;;;;;;220321;1306;22603;-55
2021/12/01 15:09:07;;;;;;;7.40;3.50;;;23.40;58.50;;;;;;220236;1310;22587;-56
2021/12/01 15:14:31;;;;;;;4.40;2.80;;;23.40;58.00;;;;;;220181;1306;22648;-56
2021/12/01 15:19:41;;;;;;;5.90;3.20;;;23.50;58.00;;;;;;219878;1309;224837;-56
2021/12/01 15:24:48;;;;;;;5.60;3.20;;;23.60;58.20;;;;;;219935;1307;22649;-54
2021/12/01 15:30:13;;;;;;;6.10;3.30;;;23.60;58.10;;;;;;219998;1306;22637;-55
2021/12/01 15:35:30;;;;;;;5.30;3.20;;;23.60;58.20;;;;;;219912;1306;22634;-55
2021/12/01 15:40:38;;;;;;;7.90;3.50;;;23.60;58.60;;;;;;219867;1306;22583;-56
2021/12/01 15:45:44;;;;;;;8.50;3.50;;;23.50;58.00;;;;;;219946;1307;22626;-56
2021/12/01 15:51:00;;;;;;;8.50;3.70;;;23.40;58.10;;;;;;219739;1306;22563;-55
2021/12/01 15:56:07;;;;;;;6.50;3.10;;;23.30;57.70;;;;;;219652;1307;24325;-56
2021/12/01 16:01:16;;;;;;;8.90;3.20;;;23.10;58.60;;;;;;219918;1306;22602;-56
2021/12/01 16:06:30;;;;;;;9.30;3.80;;;23.00;58.50;;;;;;219844;1307;22624;-55
2021/12/01 16:11:34;;;;;;;6.00;2.70;;;22.80;58.20;;;;;;219895;1306;22590;-55
2021/12/01 16:16:38;;;;;;;5.20;2.80;;;22.70;58.20;;;;;;219999;1306;22742;-55
2021/12/01 16:21:50;;;;;;;5.40;3.00;;;22.60;58.60;;;;;;219843;1309;22680;-54
2021/12/01 16:26:58;;;;;;;5.70;2.90;;;22.50;58.80;;;;;;219781;1309;22617;-56
2021/12/01 16:32:08;;;;;;;4.80;2.50;;;22.40;57.90;;;;;;219946;1306;22615;-56
2021/12/01 16:37:12;;;;;;;5.10;2.60;;;22.30;57.60;;;;;;219891;1307;22600;-55
2021/12/01 16:42:23;;;;;;;5.50;2.80;;;22.20;58.10;;;;;;219974;1306;22598;-55
2021/12/01 16:47:30;;;;;;;4.90;2.70;;;22.20;58.20;;;;;;219988;1306;22601;-54
2021/12/01 16:52:53;;;;;;;4.90;2.50;;;22.20;57.80;;;;;;220118;1307;22600;-55
2021/12/01 16:58:05;;;;;;;5.40;2.60;;;22.20;58.40;;;;;;220199;1306;22689;-53
2021/12/01 17:03:20;;;;;;;4.50;2.50;;;22.10;56.90;;;;;;220281;1310;22570;-55
2021/12/01 17:08:35;;;;;;;7.10;2.80;;;22.10;57.70;;;;;;220266;1306;22609;-56
2021/12/01 17:13:42;;;;;;;8.00;2.60;;;22.50;58.00;;;;;;220224;1310;22584;-55
2021/12/01 17:18:47;;;;;;;6.40;2.80;;;22.80;56.60;;;;;;220292;1306;22657;-55
2021/12/01 17:23:56;;;;;;;5.40;2.40;;;23.00;56.40;;;;;;220243;1306;24296;-55
2021/12/01 17:29:06;;;;;;;6.00;2.70;;;23.00;56.30;;;;;;220056;1306;22637;-53
2021/12/01 17:34:12;;;;;;;5.10;2.60;;;23.10;56.20;;;;;;220193;1309;22644;-52
2021/12/01 17:39:15;;;;;;;6.60;2.80;;;23.10;55.70;;;;;;220269;1309;22850;-54
2021/12/01 17:44:22;;;;;;;5.90;2.40;;;23.10;55.70;;;;;;220280;1309;24340;-53
2021/12/01 17:49:28;;;;;;;8.40;2.70;;;23.20;55.30;;;;;;220254;1309;22624;-53
2021/12/01 17:54:33;;;;;;;8.40;3.00;;;23.20;55.20;;;;;;220222;1306;22603;-55
2021/12/01 17:59:40;;;;;;;7.40;2.90;;;23.20;54.90;;;;;;220105;1309;22885;-55
2021/12/01 18:04:47;;;;;;;5.00;2.70;;;23.20;55.10;;;;;;220162;1306;22588;-54
2021/12/01 18:09:51;;;;;;;10.20;2.90;;;23.30;55.20;;;;;;220222;1309;22689;-52
2021/12/01 18:14:55;;;;;;;6.80;2.90;;;23.30;54.70;;;;;;220250;1306;22571;-51
2021/12/01 18:19:59;;;;;;;13.10;3.30;;;23.20;54.80;;;;;;220038;1306;22626;-54
2021/12/01 18:25:06;;;;;;;10.50;3.30;;;23.20;54.70;;;;;;219628;1306;22671;-54
2021/12/01 18:30:16;;;;;;;10.30;3.10;;;23.30;54.80;;;;;;219766;1306;24679;-56
2021/12/01 18:35:30;;;;;;;8.50;3.20;;;23.30;55.00;;;;;;219753;1306;22618;-55
2021/12/01 18:40:37;;;;;;;9.10;3.60;;;23.40;54.90;;;;;;219742;1309;22632;-56
2021/12/01 18:46:08;;;;;;;;;;;;;;;;;;;;;
2021/12/01 18:51:22;;;;;;;134.60;37.40;;;23.60;54.80;;;;;;219913;1306;22661;-56
2021/12/01 18:56:42;;;;;;;98.00;27.40;;;23.70;55.60;;;;;;219893;1306;25694;-56
2021/12/01 19:02:03;;;;;;;98.80;25.40;;;23.70;55.80;;;;;;219928;1306;22574;-56
2021/12/01 19:07:12;;;;;;;85.50;24.70;;;23.70;56.00;;;;;;219824;1306;22643;-56
2021/12/01 19:12:26;;;;;;;72.00;22.40;;;23.70;56.20;;;;;;220268;1306;22571;-56
2021/12/01 19:17:52;;;;;;;73.00;22.10;;;23.80;56.90;;;;;;220218;1306;22646;-55
2021/12/01 19:23:35;;;;;;;69.40;20.30;;;23.80;56.90;;;;;;220262;1306;22590;-54
2021/12/01 19:28:44;;;;;;;69.50;19.20;;;23.60;56.90;;;;;;220152;1306;22581;-55
2021/12/01 19:33:49;;;;;;;59.00;17.80;;;23.50;57.00;;;;;;220210;1306;25547;-53
2021/12/01 19:38:55;;;;;;;61.90;17.20;;;23.40;57.70;;;;;;220048;1310;22670;-54
2021/12/01 19:44:02;;;;;;;56.10;16.80;;;23.20;58.70;;;;;;220118;1306;22596;-52
2021/12/01 19:49:27;;;;;;;56.60;16.90;;;23.10;58.10;;;;;;219915;1309;22639;-53
2021/12/01 19:54:33;;;;;;;50.00;16.80;;;22.90;58.60;;;;;;219887;1308;22608;-53
2021/12/01 19:59:39;;;;;;;51.40;16.00;;;23.00;58.90;;;;;;219880;1308;22573;-54
2021/12/01 20:05:15;;;;;;;54.70;15.60;;;22.90;58.50;;;;;;219728;1309;22647;-54
2021/12/01 20:10:36;;;;;;;49.40;14.40;;;22.90;58.70;;;;;;219369;1308;25147;-55
2021/12/01 20:15:57;;;;;;;49.90;13.90;;;22.80;59.20;;;;;;219344;1308;22614;-56
2021/12/01 20:21:10;;;;;;;43.80;12.40;;;22.70;59.30;;;;;;219689;1308;25390;-56
2021/12/01 20:26:25;;;;;;;47.60;13.30;;;22.70;60.40;;;;;;219665;1308;22682;-56
2021/12/01 20:31:41;;;;;;;41.20;13.30;;;22.70;60.40;;;;;;219453;1309;22603;-54
2021/12/01 20:36:54;;;;;;;42.20;13.50;;;22.60;59.60;;;;;;220037;1306;24225;-54
2021/12/01 20:42:00;;;;;;;43.30;11.80;;;22.60;60.30;;;;;;220057;1306;22734;-52
2021/12/01 20:58:02;;;;;;;43.10;13.10;;;22.50;59.50;;;;;;220129;1306;22577;-56
2021/12/01 21:03:12;;;;;;;34.70;12.10;;;22.40;59.40;;;;;;219901;1309;22610;-53
2021/12/01 21:08:36;;;;;;;35.90;12.80;;;22.40;59.10;;;;;;219794;1310;22649;-54
2021/12/01 21:13:45;;;;;;;32.30;11.50;;;22.40;59.20;;;;;;220180;1306;22730;-53
2021/12/01 21:18:55;;;;;;;24.20;9.40;;;22.30;59.40;;;;;;220133;1306;22574;-53
2021/12/01 21:24:02;;;;;;;28.90;10.30;;;22.30;59.40;;;;;;220027;1306;22597;-56
2021/12/01 21:29:17;;;;;;;25.30;9.60;;;22.30;59.20;;;;;;220187;1306;22624;-56
2021/12/01 21:34:38;;;;;;;23.70;9.20;;;22.50;59.20;;;;;;219715;1308;22581;-55
2021/12/01 21:39:46;;;;;;;26.10;9.50;;;22.60;58.40;;;;;;219882;1306;22578;-54
2021/12/01 21:44:52;;;;;;;28.10;9.70;;;22.60;58.20;;;;;;219644;1306;22558;-54
2021/12/01 21:49:56;;;;;;;24.90;9.90;;;22.70;58.20;;;;;;219907;1306;22646;-55
2021/12/01 21:55:11;;;;;;;23.50;9.00;;;22.90;57.50;;;;;;219871;1306;22774;-53
2021/12/01 22:00:21;;;;;;;21.70;9.20;;;23.00;56.90;;;;;;219819;1306;24414;-53
2021/12/01 22:05:27;;;;;;;24.70;9.00;;;23.10;56.60;;;;;;219686;1306;22659;-55
2021/12/01 22:10:32;;;;;;;21.60;8.20;;;23.20;56.70;;;;;;219829;1306;22577;-55
2021/12/01 22:15:35;;;;;;;22.40;8.60;;;23.30;56.30;;;;;;219774;1304;22596;-56
2021/12/01 22:20:42;;;;;;;20.70;8.60;;;23.20;56.40;;;;;;219867;1308;22646;-56
2021/12/01 22:25:52;;;;;;;19.20;8.10;;;23.20;56.20;;;;;;219977;1306;24331;-56
2021/12/01 22:30:57;;;;;;;19.70;8.30;;;23.20;56.10;;;;;;220198;1306;22775;-54
2021/12/01 22:36:01;;;;;;;21.40;7.60;;;23.30;56.40;;;;;;219857;1306;22834;-56
2021/12/01 22:41:11;;;;;;;21.20;7.50;;;23.30;58.60;;;;;;219945;1306;22608;-57
2021/12/01 22:46:16;;;;;;;16.70;7.40;;;23.30;58.50;;;;;;219781;1306;22623;-54
2021/12/01 22:51:25;;;;;;;16.60;7.30;;;23.40;58.20;;;;;;220170;1306;22612;-56
2021/12/01 22:56:37;;;;;;;18.00;7.80;;;23.30;57.60;;;;;;220148;1309;22596;-54
2021/12/01 23:01:55;;;;;;;16.70;7.50;;;23.40;57.60;;;;;;220097;1309;22582;-54
2021/12/01 23:07:00;;;;;;;16.80;7.20;;;23.40;57.80;;;;;;220062;1308;22590;-52
2021/12/01 23:12:08;;;;;;;16.20;6.70;;;23.40;57.40;;;;;;220115;1306;22789;-54
2021/12/01 23:17:15;;;;;;;16.30;6.50;;;23.50;56.90;;;;;;220219;1306;22603;-55
2021/12/01 23:22:23;;;;;;;17.90;6.40;;;23.60;56.70;;;;;;220027;1306;234957;-55
2021/12/01 23:27:34;;;;;;;14.00;6.60;;;23.60;56.60;;;;;;220152;1306;25651;-52
2021/12/01 23:32:51;;;;;;;14.30;6.20;;;23.60;56.40;;;;;;220201;1306;22617;-51
2021/12/01 23:38:05;;;;;;;14.80;6.40;;;23.70;56.60;;;;;;220123;1306;22640;-55
2021/12/01 23:43:15;;;;;;;15.70;5.70;;;23.70;56.30;;;;;;220239;1305;22578;-55
2021/12/01 23:53:54;;;;;;;14.10;6.00;;;23.60;56.10;;;;;;220295;1306;22833;-56
2021/12/01 23:58:59;;;;;;;;;;;23.70;56.00;;;;;;220271;1306;24266;-56
